Terminal Aerodrome Forecast
Issued by NWS

Home | Current Version | Previous Version | Text Only | Print | Product List | Glossary On
Versions: 1 2 3 4 5 6 7 8 9 10 11 12 13 14 15 16 17 18 19 20 21 22 23 24 25 26 27 28 29 30 31
000
FTUS45 KBOU 230156 AAA
TAFBJC
TAF AMD
KBJC 230156Z 2302/2324 30005KT P6SM FEW100
     FM231300 VRB05KT P6SM FEW100 SCT200
     FM231900 15010KT P6SM SCT090 BKN180=

USA.gov is the U.S. government's official web portal to all federal, state and local government web resources and services.